Archival Weather

Salzburg

Salzburg, Austria (LOWS)

Report from: Friday, May 26, 2023 1:20 AM CEST
Current time: Saturday, June 22, 2024 1:45 AM CEST

Current weather – Weather history – Daily summaries
Weather forecast

Temperature11.0°C (51.8°F)
Dew point11.0°C (51.8°F)
Winds 3 kts (1.5 m/s, 3.5 mph) Southeast (140°)
Visibility6.2 mi. (10 km)
Clouds Few clouds 200 ft. (61 m)
Altimeter30.21 in.Hg (1023 mB)
Relative humidity100 %
Density altitude-623 ft. (-190 m)
Remarks Fully automated report
Flight conditions Visual Meteorological Conditions
Raw dataLOWS 252320Z AUTO 14003KT 9999 FEW002 11/11 Q1023
An error has occurred. This application may no longer respond until reloaded. Reload 🗙